Arlington, Colorado
Current Conditions -  °F | °C
As of 4:53 PM on Wednesday 26 Nov 2014 (Local Time) from KLHX Reporting Station
Clear Clear  
Wind Chill: -1°   Ceiling: Unl
Heat Index:   Visibility: 10mi
Dew Point: -5°   Wind: 7mph
Humidity: 59%   Direction: 90°E
Pressure: 30.25"   Gusts: NA
Location:  38.34°N, 103.34°W
Report Text: KLHX 262353Z AUTO 09006KT 10SM CLR 02/M05 A3025 RMK AO2 SLP259 T00221050 10072 20022 53009
Loading
Personal Weather Stations






























Interactive Weather Map New forecast layout! Learn more

10-Day Weather Forecast

Advertisements
Track Severe Weather on mobile